createdAt,value
2023-02-11T00:01:30.143Z,102233.44
2023-02-11T00:03:58.936Z,102234.19
2023-02-11T00:06:28.585Z,102227.84
2023-02-11T00:08:56.601Z,102225.44
2023-02-11T00:11:31.134Z,102225.44
2023-02-11T00:14:00.745Z,102219.75
2023-02-11T00:16:29.629Z,102214.22
2023-02-11T00:18:57.238Z,102196.66
2023-02-11T00:21:26.363Z,102221.53
2023-02-11T00:23:55.006Z,102189.41
2023-02-11T00:26:27.643Z,102193.47
2023-02-11T00:28:55.013Z,102224.38
2023-02-11T00:31:23.725Z,102227.41
2023-02-11T00:33:51.119Z,102216.28
2023-02-11T00:36:21.453Z,102223.22
2023-02-11T00:38:50.021Z,102208.69
2023-02-11T00:41:18.044Z,102228.81
2023-02-11T00:43:45.367Z,102201.38
2023-02-11T00:46:13.243Z,102224.44
2023-02-11T00:48:40.797Z,102218.16
2023-02-11T00:51:08.252Z,102197.97
2023-02-11T00:53:36.080Z,102194.94
2023-02-11T00:56:03.933Z,102207.44
2023-02-11T00:58:32.008Z,102212.56
2023-02-11T01:00:59.101Z,102201.63
2023-02-11T01:03:26.821Z,102212.81
2023-02-11T01:05:54.299Z,102211.25
2023-02-11T01:08:21.361Z,102169.59
2023-02-11T01:11:00.273Z,102198.56
2023-02-11T01:13:29.283Z,102199.63
2023-02-11T01:15:56.895Z,102203.84
2023-02-11T01:18:24.777Z,102209.94
2023-02-11T01:20:53.976Z,102187.38
2023-02-11T01:23:21.993Z,102196.88
2023-02-11T01:25:49.462Z,102199.25
2023-02-11T01:28:19.630Z,102220.06
2023-02-11T01:30:47.023Z,102224.00
2023-02-11T01:33:14.119Z,102219.44
2023-02-11T01:35:41.613Z,102205.16
2023-02-11T01:38:14.294Z,102201.81
2023-02-11T01:40:46.447Z,102209.28
2023-02-11T01:43:13.529Z,102200.13
2023-02-11T01:45:47.349Z,102219.91
2023-02-11T01:48:46.094Z,102221.31
2023-02-11T01:51:18.884Z,102194.22
2023-02-11T01:54:07.050Z,102197.56
2023-02-11T01:56:55.990Z,102214.03
2023-02-11T01:59:30.473Z,102208.59
2023-02-11T02:02:03.677Z,102194.13
2023-02-11T02:04:36.119Z,102204.56
2023-02-11T02:07:08.565Z,102225.31
2023-02-11T02:09:45.749Z,102195.38
2023-02-11T02:12:12.858Z,102220.88
2023-02-11T02:14:42.241Z,102204.81
2023-02-11T02:17:38.037Z,102199.16
2023-02-11T02:20:29.168Z,102215.16
2023-02-11T02:23:02.333Z,102214.38
2023-02-11T02:25:58.551Z,102213.25
2023-02-11T02:28:44.178Z,102220.69
2023-02-11T02:31:40.133Z,102222.84
2023-02-11T02:34:17.471Z,102213.75
2023-02-11T02:37:05.431Z,102216.91
2023-02-11T02:39:36.533Z,102206.38
2023-02-11T02:42:05.725Z,102203.97
2023-02-11T02:44:33.647Z,102204.28
2023-02-11T02:47:00.806Z,102207.44
2023-02-11T02:49:28.076Z,102200.28
2023-02-11T02:52:01.374Z,102208.78
2023-02-11T02:55:02.332Z,102206.50
2023-02-11T02:57:58.897Z,102216.06
2023-02-11T03:01:05.194Z,102211.19
2023-02-11T03:03:59.266Z,102195.75
2023-02-11T03:06:37.592Z,102197.91
2023-02-11T03:09:11.990Z,102206.19
2023-02-11T03:11:40.213Z,102200.78
2023-02-11T03:14:11.406Z,102205.19
2023-02-11T03:16:40.183Z,102198.94
2023-02-11T03:19:18.883Z,102206.78
2023-02-11T03:21:48.955Z,102205.22
2023-02-11T03:24:25.008Z,102200.78
2023-02-11T03:26:54.973Z,102188.78
2023-02-11T03:29:35.037Z,102189.31
2023-02-11T03:32:12.491Z,102195.47
2023-02-11T03:34:50.577Z,102196.34
2023-02-11T03:37:27.301Z,102182.50
2023-02-11T03:40:08.499Z,102183.03
2023-02-11T03:42:44.281Z,102157.03
2023-02-11T03:45:15.949Z,102150.44
2023-02-11T03:47:48.890Z,102175.09
2023-02-11T03:50:17.679Z,102163.22
2023-02-11T03:52:47.119Z,102159.13
2023-02-11T03:55:18.074Z,102167.19
2023-02-11T03:57:45.678Z,102153.19
2023-02-11T04:00:13.737Z,102160.69
2023-02-11T04:02:41.667Z,102157.31
2023-02-11T04:05:11.087Z,102162.88
2023-02-11T04:07:38.261Z,102162.31
2023-02-11T04:10:07.263Z,102186.63
2023-02-11T04:12:37.377Z,102142.03
2023-02-11T04:15:04.848Z,102149.03
2023-02-11T04:17:32.162Z,102154.16
2023-02-11T04:19:59.344Z,102158.19
2023-02-11T04:22:26.541Z,102184.25
2023-02-11T04:24:53.639Z,102167.22
2023-02-11T04:27:20.797Z,102173.72
2023-02-11T04:29:48.353Z,102158.22
2023-02-11T04:32:16.089Z,102177.78
2023-02-11T04:34:44.282Z,102176.69
2023-02-11T04:37:11.354Z,102151.31
2023-02-11T04:39:38.542Z,102184.41
2023-02-11T04:42:06.003Z,102168.88
2023-02-11T04:44:33.567Z,102175.41
2023-02-11T04:47:01.033Z,102175.56
2023-02-11T04:49:28.441Z,102179.56
2023-02-11T04:51:55.749Z,102164.44
2023-02-11T04:54:22.938Z,102122.53
2023-02-11T04:56:51.242Z,102180.28
2023-02-11T04:59:18.261Z,102174.84
2023-02-11T05:01:45.531Z,102161.13
2023-02-11T05:04:12.712Z,102165.50
2023-02-11T05:06:40.123Z,102159.63
2023-02-11T05:09:07.926Z,102132.78
2023-02-11T05:11:36.912Z,102148.72
2023-02-11T05:14:05.905Z,102152.06
2023-02-11T05:16:33.898Z,102140.66
2023-02-11T05:19:01.231Z,102135.47
2023-02-11T05:21:28.333Z,102140.59
2023-02-11T05:23:55.466Z,102145.44
2023-02-11T05:26:22.535Z,102144.44
2023-02-11T05:28:49.677Z,102141.03
2023-02-11T05:31:17.906Z,102147.47
2023-02-11T05:33:45.041Z,102103.97
2023-02-11T05:36:13.613Z,102145.41
2023-02-11T05:38:42.691Z,102151.31
2023-02-11T05:41:11.225Z,102161.75
2023-02-11T05:43:38.425Z,102139.13
2023-02-11T05:46:06.176Z,102146.66
2023-02-11T05:48:33.705Z,102164.09
2023-02-11T05:51:00.844Z,102145.63
2023-02-11T05:53:28.282Z,102158.75
2023-02-11T05:55:55.356Z,102149.91
2023-02-11T05:58:22.848Z,102150.06
2023-02-11T06:00:49.983Z,102158.75
2023-02-11T06:03:17.333Z,102153.19
2023-02-11T06:05:45.798Z,102124.03
2023-02-11T06:08:13.095Z,102145.81
2023-02-11T06:10:43.155Z,102150.78
2023-02-11T06:13:10.238Z,102173.13
2023-02-11T06:15:37.487Z,102168.69
2023-02-11T06:18:04.975Z,102179.47
2023-02-11T06:20:32.750Z,102176.59
2023-02-11T06:23:00.690Z,102153.25
2023-02-11T06:25:27.810Z,102154.81
2023-02-11T06:27:55.142Z,102178.22
2023-02-11T06:30:22.329Z,102159.47
2023-02-11T06:32:49.654Z,102175.22
2023-02-11T06:35:17.020Z,102175.75
2023-02-11T06:37:44.420Z,102148.50
2023-02-11T06:40:12.208Z,102159.59
2023-02-11T06:42:40.327Z,102157.94
2023-02-11T06:45:13.186Z,102142.41
2023-02-11T06:47:41.098Z,102150.28
2023-02-11T06:50:11.118Z,102149.94
2023-02-11T06:52:38.505Z,102137.69
2023-02-11T06:55:06.048Z,102155.59
2023-02-11T06:57:33.328Z,102128.13
2023-02-11T07:00:00.427Z,102137.34
2023-02-11T07:02:27.500Z,102136.34
2023-02-11T07:04:54.581Z,102116.38
2023-02-11T07:07:21.616Z,102127.78
2023-02-11T07:09:48.963Z,102120.28
2023-02-11T07:12:16.311Z,102112.09
2023-02-11T07:14:43.422Z,102105.34
2023-02-11T07:17:10.543Z,102091.44
2023-02-11T07:19:37.825Z,102109.44
2023-02-11T07:22:04.925Z,102096.28
2023-02-11T07:24:32.531Z,102106.00
2023-02-11T07:26:59.757Z,102103.25
2023-02-11T07:29:26.996Z,102107.38
2023-02-11T07:31:55.482Z,102113.16
2023-02-11T07:34:22.657Z,102085.84
2023-02-11T07:36:50.559Z,102091.63
2023-02-11T07:39:17.804Z,102092.84
2023-02-11T07:41:47.904Z,102099.78
2023-02-11T07:44:15.362Z,102084.56
2023-02-11T07:46:45.857Z,102085.31
2023-02-11T07:49:13.131Z,102079.97
2023-02-11T07:51:40.243Z,102077.34
2023-02-11T07:54:07.862Z,102063.78
2023-02-11T07:56:34.850Z,102071.41
2023-02-11T07:59:04.194Z,102090.25
2023-02-11T08:01:31.622Z,102093.41
2023-02-11T08:04:00.208Z,102102.78
2023-02-11T08:06:30.071Z,102064.81
2023-02-11T08:08:57.389Z,102077.75
2023-02-11T08:11:29.149Z,102080.78
2023-02-11T08:13:57.262Z,102080.59
2023-02-11T08:16:27.456Z,102058.19
2023-02-11T08:18:57.835Z,102067.38
2023-02-11T08:21:26.089Z,102059.59
2023-02-11T08:23:54.459Z,102055.09
2023-02-11T08:26:24.824Z,102068.34
2023-02-11T08:28:53.842Z,102064.94
2023-02-11T08:31:24.932Z,102068.28
2023-02-11T08:33:53.505Z,102044.38
2023-02-11T08:36:29.761Z,102067.28
2023-02-11T08:39:15.987Z,102065.41
2023-02-11T08:41:46.144Z,102035.38
2023-02-11T08:44:13.705Z,102036.56
2023-02-11T08:46:40.795Z,102034.94
2023-02-11T08:49:07.952Z,102039.84
2023-02-11T08:51:35.232Z,102033.63
2023-02-11T08:54:02.485Z,102005.50
2023-02-11T08:56:31.791Z,102024.97
2023-02-11T08:58:59.110Z,102024.19
2023-02-11T09:01:30.188Z,102021.84
2023-02-11T09:03:59.110Z,102007.59
2023-02-11T09:06:27.791Z,102003.19
2023-02-11T09:08:57.482Z,102009.03
2023-02-11T09:11:32.430Z,102002.06
2023-02-11T09:14:00.534Z,101990.19
2023-02-11T09:16:31.260Z,102000.84
2023-02-11T09:18:59.788Z,101998.56
2023-02-11T09:21:27.596Z,101999.59
2023-02-11T09:23:55.090Z,101985.03
2023-02-11T09:26:28.027Z,101992.47
2023-02-11T09:28:55.684Z,101983.78
2023-02-11T09:31:25.342Z,101970.47
2023-02-11T09:33:56.276Z,101975.25
2023-02-11T09:36:26.730Z,101954.88
2023-02-11T09:38:53.874Z,101947.72
2023-02-11T09:41:33.685Z,101959.25
2023-02-11T09:44:05.040Z,101915.19
2023-02-11T09:46:36.520Z,101941.22
2023-02-11T09:49:05.191Z,101947.38
2023-02-11T09:51:52.572Z,101932.78
2023-02-11T09:54:29.861Z,101946.97
2023-02-11T09:56:57.087Z,101932.69
2023-02-11T09:59:24.138Z,101941.03
2023-02-11T10:01:58.106Z,101920.59
2023-02-11T10:04:40.531Z,101943.50
2023-02-11T10:07:34.985Z,101942.75
2023-02-11T10:10:07.953Z,101938.72
2023-02-11T10:13:06.582Z,101912.72
2023-02-11T10:15:50.242Z,101924.38
2023-02-11T10:18:39.060Z,101912.56
2023-02-11T10:21:25.747Z,101913.00
2023-02-11T10:24:00.005Z,101878.75
2023-02-11T10:26:31.016Z,101912.16
2023-02-11T10:29:03.748Z,101885.28
2023-02-11T10:31:42.515Z,101891.88
2023-02-11T10:34:11.725Z,101892.28
2023-02-11T10:36:44.688Z,101881.38
2023-02-11T10:39:16.639Z,101894.03
2023-02-11T10:41:57.217Z,101885.13
2023-02-11T10:44:35.060Z,101890.31
2023-02-11T10:47:09.313Z,101865.53
2023-02-11T10:49:42.373Z,101863.88
2023-02-11T10:52:30.646Z,101887.50
2023-02-11T10:55:09.950Z,101878.16
2023-02-11T10:57:46.425Z,101865.34
2023-02-11T11:00:28.655Z,101867.88
2023-02-11T11:02:58.934Z,101861.00
2023-02-11T11:05:32.518Z,101834.53
2023-02-11T11:08:03.179Z,101848.63
2023-02-11T11:10:35.769Z,101840.75
2023-02-11T11:13:03.496Z,101852.84
2023-02-11T11:15:32.659Z,101821.88
2023-02-11T11:18:22.825Z,101825.84
2023-02-11T11:21:05.853Z,101854.28
2023-02-11T11:23:36.383Z,101845.72
2023-02-11T11:26:17.794Z,101827.66
2023-02-11T11:29:22.977Z,101852.81
2023-02-11T11:32:04.844Z,101830.53
2023-02-11T11:34:33.298Z,101827.28
2023-02-11T11:37:10.245Z,101830.19
2023-02-11T11:39:37.632Z,101819.44
2023-02-11T11:42:22.226Z,101816.06
2023-02-11T11:45:01.379Z,101830.88
2023-02-11T11:48:03.123Z,101825.94
2023-02-11T11:50:48.366Z,101823.53
2023-02-11T11:53:25.960Z,101807.75
2023-02-11T11:56:13.987Z,101820.25
2023-02-11T11:58:41.288Z,101817.34
2023-02-11T12:01:23.239Z,101821.59
2023-02-11T12:04:27.790Z,101824.97
2023-02-11T12:07:25.985Z,101807.22
2023-02-11T12:09:53.249Z,101802.88
2023-02-11T12:12:32.389Z,101810.59
2023-02-11T12:15:31.751Z,101812.44
2023-02-11T12:17:58.827Z,101809.34
2023-02-11T12:20:55.125Z,101810.75
2023-02-11T12:23:40.405Z,101809.66
2023-02-11T12:26:29.442Z,101792.09
2023-02-11T12:29:27.833Z,101805.22
2023-02-11T12:32:13.076Z,101811.72
2023-02-11T12:34:40.264Z,101811.25
2023-02-11T12:37:37.977Z,101804.84
2023-02-11T12:40:14.561Z,101797.13
2023-02-11T12:43:05.777Z,101787.13
2023-02-11T12:46:07.249Z,101792.47
2023-02-11T12:49:01.928Z,101796.78
2023-02-11T12:52:02.717Z,101788.22
2023-02-11T12:54:46.431Z,101765.44
2023-02-11T12:57:31.489Z,101783.41
2023-02-11T13:00:02.908Z,101776.31
2023-02-11T13:02:34.670Z,101785.34
2023-02-11T13:05:27.144Z,101783.28
2023-02-11T13:08:04.732Z,101773.50
2023-02-11T13:10:38.363Z,101775.56
2023-02-11T13:13:16.868Z,101785.34
2023-02-11T13:15:49.371Z,101768.44
2023-02-11T13:18:35.531Z,101773.38
2023-02-11T13:21:05.563Z,101771.13
2023-02-11T13:23:49.076Z,101765.91
2023-02-11T13:26:27.308Z,101761.56
2023-02-11T13:29:22.682Z,101756.44
2023-02-11T13:32:08.605Z,101752.00
2023-02-11T13:34:41.745Z,101752.34
2023-02-11T13:37:32.036Z,101750.44
2023-02-11T13:40:04.123Z,101746.94
2023-02-11T13:42:34.524Z,101752.88
2023-02-11T13:45:01.963Z,101730.34
2023-02-11T13:47:37.162Z,101736.19
2023-02-11T13:50:07.669Z,101720.38
2023-02-11T13:52:37.577Z,101732.88
2023-02-11T13:55:14.505Z,101740.28
2023-02-11T13:57:42.760Z,101716.16
2023-02-11T14:00:34.411Z,101728.16
2023-02-11T14:03:31.995Z,101734.59
2023-02-11T14:06:26.832Z,101738.09
2023-02-11T14:09:00.104Z,101742.69
2023-02-11T14:11:33.701Z,101740.03
2023-02-11T14:14:35.132Z,101747.72
2023-02-11T14:17:08.540Z,101746.09
2023-02-11T14:19:36.899Z,101714.91
2023-02-11T14:22:06.405Z,101736.16
2023-02-11T14:24:33.498Z,101744.84
2023-02-11T14:27:24.510Z,101745.38
2023-02-11T14:30:24.594Z,101742.63
2023-02-11T14:32:57.814Z,101752.06
2023-02-11T14:36:01.757Z,101741.84
2023-02-11T14:38:47.337Z,101749.75
2023-02-11T14:41:19.721Z,101747.38
2023-02-11T14:43:53.625Z,101743.75
2023-02-11T14:46:24.815Z,101755.28
2023-02-11T14:48:55.395Z,101747.38
2023-02-11T14:51:31.424Z,101736.25
2023-02-11T14:54:28.505Z,101749.16
2023-02-11T14:57:09.614Z,101756.09
2023-02-11T14:59:36.821Z,101739.25
2023-02-11T15:02:04.284Z,101745.88
2023-02-11T15:04:34.706Z,101739.31
2023-02-11T15:07:08.574Z,101732.06
2023-02-11T15:09:50.435Z,101719.41
2023-02-11T15:12:25.398Z,101735.16
2023-02-11T15:14:57.293Z,101731.63
2023-02-11T15:17:29.405Z,101735.69
2023-02-11T15:20:01.173Z,101722.63
2023-02-11T15:22:33.202Z,101737.44
2023-02-11T15:25:10.418Z,101729.78
2023-02-11T15:27:49.564Z,101727.47
2023-02-11T15:30:22.830Z,101735.34
2023-02-11T15:32:50.952Z,101733.03
2023-02-11T15:35:18.946Z,101723.53
2023-02-11T15:37:47.002Z,101738.16
2023-02-11T15:40:25.085Z,101732.41
2023-02-11T15:43:07.685Z,101729.88
2023-02-11T15:45:58.970Z,101733.66
2023-02-11T15:48:35.634Z,101712.75
2023-02-11T15:51:20.039Z,101735.56
2023-02-11T15:53:53.267Z,101729.25
2023-02-11T15:56:25.671Z,101690.13
2023-02-11T15:58:56.826Z,101723.09
2023-02-11T16:01:34.113Z,101717.34
2023-02-11T16:04:03.403Z,101716.72
2023-02-11T16:06:42.033Z,101727.94
2023-02-11T16:09:10.184Z,101717.59
2023-02-11T16:11:55.903Z,101723.72
2023-02-11T16:14:39.308Z,101717.16
2023-02-11T16:17:18.573Z,101717.16
2023-02-11T16:19:48.691Z,101711.44
2023-02-11T16:22:19.429Z,101702.75
2023-02-11T16:24:52.916Z,101698.66
2023-02-11T16:27:30.605Z,101708.03
2023-02-11T16:29:58.883Z,101700.38
2023-02-11T16:32:30.854Z,101674.59
2023-02-11T16:35:00.978Z,101669.94
2023-02-11T16:37:28.824Z,101668.13
2023-02-11T16:39:57.002Z,101693.66
2023-02-11T16:42:24.675Z,101694.34
2023-02-11T16:44:51.754Z,101668.19
2023-02-11T16:47:28.445Z,101684.22
2023-02-11T16:49:56.497Z,101689.94
2023-02-11T16:52:24.446Z,101676.19
2023-02-11T16:54:51.909Z,101667.34
2023-02-11T16:57:21.931Z,101676.72
2023-02-11T16:59:49.794Z,101681.41
2023-02-11T17:02:29.658Z,101676.56
2023-02-11T17:05:00.612Z,101668.56
2023-02-11T17:07:28.769Z,101668.78
2023-02-11T17:09:56.415Z,101661.06
2023-02-11T17:12:26.800Z,101674.31
2023-02-11T17:14:54.429Z,101653.91
2023-02-11T17:17:24.107Z,101656.41
2023-02-11T17:19:51.448Z,101646.13
2023-02-11T17:22:19.097Z,101658.31
2023-02-11T17:24:46.203Z,101660.53
2023-02-11T17:27:13.938Z,101652.47
2023-02-11T17:29:41.136Z,101661.69
2023-02-11T17:32:08.309Z,101637.97
2023-02-11T17:34:35.411Z,101647.41
2023-02-11T17:37:09.003Z,101646.41
2023-02-11T17:39:40.274Z,101644.66
2023-02-11T17:42:08.776Z,101651.88
2023-02-11T17:44:36.104Z,101637.06
2023-02-11T17:47:03.864Z,101642.16
2023-02-11T17:49:31.032Z,101629.09
2023-02-11T17:51:58.276Z,101647.00
2023-02-11T17:54:26.062Z,101640.47
2023-02-11T17:56:57.139Z,101638.41
2023-02-11T17:59:26.163Z,101650.84
2023-02-11T18:01:53.343Z,101641.44
2023-02-11T18:04:20.701Z,101637.41
2023-02-11T18:06:48.612Z,101626.69
2023-02-11T18:09:15.765Z,101623.31
2023-02-11T18:11:43.165Z,101625.78
2023-02-11T18:14:11.312Z,101606.66
2023-02-11T18:16:40.443Z,101599.38
2023-02-11T18:19:08.168Z,101601.97
2023-02-11T18:21:39.260Z,101607.00
2023-02-11T18:24:07.327Z,101614.75
2023-02-11T18:26:35.151Z,101616.97
2023-02-11T18:29:03.944Z,101626.94
2023-02-11T18:31:31.668Z,101630.47
2023-02-11T18:33:58.801Z,101607.03
2023-02-11T18:36:25.879Z,101620.31
2023-02-11T18:38:58.147Z,101612.66
2023-02-11T18:41:25.338Z,101618.56
2023-02-11T18:43:52.944Z,101592.94
2023-02-11T18:46:21.493Z,101614.44
2023-02-11T18:48:50.212Z,101598.88
2023-02-11T18:51:20.994Z,101598.63
2023-02-11T18:53:49.197Z,101596.19
2023-02-11T18:56:23.368Z,101576.72
2023-02-11T18:58:52.359Z,101595.34
2023-02-11T19:01:26.031Z,101602.47
2023-02-11T19:03:54.846Z,101596.88
2023-02-11T19:06:25.492Z,101584.97
2023-02-11T19:08:59.688Z,101582.25
2023-02-11T19:11:56.059Z,101558.69
2023-02-11T19:14:24.461Z,101579.63
2023-02-11T19:16:54.945Z,101565.47
2023-02-11T19:19:24.157Z,101576.31
2023-02-11T19:21:51.491Z,101569.94
2023-02-11T19:24:20.600Z,101570.06
2023-02-11T19:26:49.936Z,101576.25
2023-02-11T19:29:18.165Z,101558.75
2023-02-11T19:31:45.896Z,101553.38
2023-02-11T19:34:14.842Z,101563.63
2023-02-11T19:36:42.205Z,101551.69
2023-02-11T19:39:10.432Z,101555.50
2023-02-11T19:41:37.977Z,101520.28
2023-02-11T19:44:06.298Z,101543.72
2023-02-11T19:46:37.254Z,101537.63
2023-02-11T19:49:07.856Z,101534.91
2023-02-11T19:51:37.154Z,101524.06
2023-02-11T19:54:04.343Z,101539.34
2023-02-11T19:56:31.464Z,101537.84
2023-02-11T19:59:01.277Z,101518.66
2023-02-11T20:01:30.874Z,101499.13
2023-02-11T20:04:00.938Z,101484.31
2023-02-11T20:06:30.735Z,101525.25
2023-02-11T20:09:11.289Z,101526.06
2023-02-11T20:11:39.483Z,101501.44
2023-02-11T20:14:10.096Z,101487.50
2023-02-11T20:16:48.061Z,101504.63
2023-02-11T20:19:22.328Z,101497.97
2023-02-11T20:21:53.187Z,101474.47
2023-02-11T20:24:29.739Z,101476.78
2023-02-11T20:26:57.009Z,101488.66
2023-02-11T20:29:25.165Z,101484.41
2023-02-11T20:31:53.962Z,101474.53
2023-02-11T20:34:22.118Z,101476.63
2023-02-11T20:36:53.581Z,101487.72
2023-02-11T20:39:22.876Z,101491.31
2023-02-11T20:41:50.857Z,101471.66
2023-02-11T20:44:18.108Z,101479.31
2023-02-11T20:46:48.945Z,101457.66
2023-02-11T20:49:19.007Z,101450.00
2023-02-11T20:51:47.353Z,101467.50
2023-02-11T20:54:18.019Z,101468.22
2023-02-11T20:56:48.484Z,101437.22
2023-02-11T20:59:19.337Z,101454.75
2023-02-11T21:01:49.672Z,101452.09
2023-02-11T21:04:19.835Z,101453.59
2023-02-11T21:06:50.034Z,101461.81
2023-02-11T21:09:20.594Z,101424.41
2023-02-11T21:11:49.558Z,101422.50
2023-02-11T21:14:19.339Z,101404.22
2023-02-11T21:16:50.154Z,101452.50
2023-02-11T21:19:20.197Z,101438.28
2023-02-11T21:21:47.617Z,101433.31
2023-02-11T21:24:15.706Z,101432.03
2023-02-11T21:26:43.036Z,101445.66
2023-02-11T21:29:11.286Z,101434.94
2023-02-11T21:31:38.442Z,101419.81
2023-02-11T21:34:06.421Z,101403.69
2023-02-11T21:36:33.986Z,101420.28
2023-02-11T21:39:02.007Z,101419.38
2023-02-11T21:41:30.563Z,101418.69
2023-02-11T21:43:57.853Z,101415.19
2023-02-11T21:46:25.405Z,101398.84
2023-02-11T21:48:52.701Z,101393.66
2023-02-11T21:51:22.876Z,101404.56
2023-02-11T21:54:01.493Z,101389.84
2023-02-11T21:56:31.263Z,101380.25
2023-02-11T21:58:59.634Z,101399.47
2023-02-11T22:01:32.800Z,101391.94
2023-02-11T22:04:00.372Z,101382.84
2023-02-11T22:06:33.560Z,101393.59
2023-02-11T22:09:06.947Z,101380.84
2023-02-11T22:11:34.155Z,101401.16
2023-02-11T22:14:01.340Z,101379.38
2023-02-11T22:16:30.521Z,101393.75
2023-02-11T22:18:58.876Z,101398.09
2023-02-11T22:21:26.637Z,101388.50
2023-02-11T22:23:56.076Z,101389.69
2023-02-11T22:26:25.900Z,101358.22
2023-02-11T22:28:53.829Z,101342.31
2023-02-11T22:31:24.533Z,101377.16
2023-02-11T22:33:55.302Z,101367.97
2023-02-11T22:36:25.398Z,101372.41
2023-02-11T22:38:53.594Z,101349.28
2023-02-11T22:41:21.531Z,101358.84
2023-02-11T22:43:49.819Z,101338.63
2023-02-11T22:46:19.126Z,101360.72
2023-02-11T22:48:47.665Z,101345.06
2023-02-11T22:51:20.975Z,101350.13
2023-02-11T22:53:59.654Z,101305.78
2023-02-11T22:56:29.012Z,101329.44
2023-02-11T22:59:03.303Z,101338.50
2023-02-11T23:01:32.020Z,101306.56
2023-02-11T23:04:00.537Z,101313.56
2023-02-11T23:06:27.751Z,101325.44
2023-02-11T23:08:55.478Z,101299.28
2023-02-11T23:11:29.078Z,101315.97
2023-02-11T23:13:56.736Z,101321.50
2023-02-11T23:16:27.435Z,101305.13
2023-02-11T23:18:55.162Z,101325.44
2023-02-11T23:21:25.038Z,101323.75
2023-02-11T23:23:58.074Z,101317.28
2023-02-11T23:26:26.311Z,101314.69
2023-02-11T23:28:53.737Z,101302.84
2023-02-11T23:31:37.688Z,101295.94
2023-02-11T23:34:05.450Z,101279.13
2023-02-11T23:36:33.527Z,101270.19
2023-02-11T23:39:01.236Z,101290.75
2023-02-11T23:41:28.878Z,101292.53
2023-02-11T23:43:58.199Z,101291.19
2023-02-11T23:46:28.683Z,101272.34
2023-02-11T23:48:56.453Z,101285.84
2023-02-11T23:51:23.992Z,101268.53
2023-02-11T23:53:56.083Z,101265.78
2023-02-11T23:56:28.362Z,101271.91
2023-02-11T23:58:58.211Z,101259.66
